createdAt,value
2022-10-25T00:01:05.822Z,31.40
2022-10-25T00:03:59.683Z,37.85
2022-10-25T00:06:53.719Z,41.78
2022-10-25T00:09:40.719Z,37.63
2022-10-25T00:12:14.797Z,39.25
2022-10-25T00:15:01.722Z,33.97
2022-10-25T00:17:34.798Z,37.75
2022-10-25T00:20:21.716Z,38.42
2022-10-25T00:23:01.706Z,41.30
2022-10-25T00:25:48.712Z,37.10
2022-10-25T00:28:28.719Z,40.47
2022-10-25T00:31:23.752Z,42.55
2022-10-25T00:34:03.722Z,40.97
2022-10-25T00:36:50.727Z,43.08
2022-10-25T00:39:23.815Z,43.35
2022-10-25T00:42:17.707Z,42.83
2022-10-25T00:45:14.730Z,44.20
2022-10-25T00:48:16.727Z,46.95
2022-10-25T00:51:03.747Z,43.03
2022-10-25T00:53:48.715Z,34.38
2022-10-25T00:56:47.762Z,43.08
2022-10-25T00:59:35.737Z,41.78
2022-10-25T01:02:15.861Z,36.72
2022-10-25T01:05:09.746Z,41.65
2022-10-25T01:07:56.739Z,41.17
2022-10-25T01:10:36.802Z,36.17
2022-10-25T01:13:30.738Z,36.28
2022-10-25T01:16:37.876Z,40.78
2022-10-25T01:19:31.732Z,37.13
2022-10-25T01:22:20.801Z,34.97
2022-10-25T01:25:15.752Z,35.28
2022-10-25T01:28:11.738Z,39.40
2022-10-25T01:31:01.860Z,38.33
2022-10-25T01:34:03.756Z,35.15
2022-10-25T01:36:48.824Z,36.15
2022-10-25T01:39:50.738Z,36.95
2022-10-25T01:42:43.769Z,34.00
2022-10-25T01:46:27.750Z,37.40
2022-10-25T01:49:21.757Z,37.38
2022-10-25T01:51:54.835Z,33.60
2022-10-25T01:54:41.834Z,35.47
2022-10-25T01:57:46.108Z,39.22
2022-10-25T02:00:32.886Z,37.78
2022-10-25T02:03:30.803Z,38.72
2022-10-25T02:06:53.757Z,38.67
2022-10-25T02:09:58.851Z,37.55
2022-10-25T02:13:17.825Z,32.75
2022-10-25T02:16:21.763Z,33.85
2022-10-25T02:19:12.804Z,31.60
2022-10-25T02:21:46.897Z,33.72
2022-10-25T02:24:36.805Z,31.20
2022-10-25T02:27:12.913Z,32.88
2022-10-25T02:30:00.806Z,30.65
2022-10-25T02:32:33.870Z,37.10
2022-10-25T02:35:22.841Z,32.58
2022-10-25T02:37:55.873Z,31.63
2022-10-25T02:40:42.805Z,34.88
2022-10-25T02:43:15.875Z,33.05
2022-10-25T02:46:02.814Z,34.00
2022-10-25T02:48:35.946Z,33.33
2022-10-25T02:51:23.826Z,33.17
2022-10-25T02:53:56.944Z,29.52
2022-10-25T02:56:44.807Z,32.90
2022-10-25T02:59:25.769Z,32.55
2022-10-25T03:02:19.825Z,33.10
2022-10-25T03:05:06.808Z,30.75
2022-10-25T03:07:46.818Z,30.88
2022-10-25T03:10:40.803Z,34.90
2022-10-25T03:13:27.822Z,31.48
2022-10-25T03:16:07.840Z,31.30
2022-10-25T03:19:01.830Z,31.08
2022-10-25T03:21:48.810Z,33.28
2022-10-25T03:24:21.874Z,30.98
2022-10-25T03:27:08.817Z,30.98
2022-10-25T03:29:41.872Z,32.25
2022-10-25T03:32:28.822Z,29.73
2022-10-25T03:35:01.877Z,30.63
2022-10-25T03:37:49.062Z,30.17
2022-10-25T03:40:22.935Z,29.20
2022-10-25T03:43:11.011Z,30.98
2022-10-25T03:45:51.858Z,31.60
2022-10-25T03:48:45.856Z,31.00
2022-10-25T03:51:32.794Z,29.33
2022-10-25T03:54:05.959Z,29.38
2022-10-25T03:56:52.827Z,28.50
2022-10-25T03:59:25.953Z,28.17
2022-10-25T04:02:12.899Z,28.30
2022-10-25T04:04:45.867Z,28.38
2022-10-25T04:07:32.827Z,28.30
2022-10-25T04:10:05.949Z,29.10
2022-10-25T04:12:54.724Z,30.15
2022-10-25T04:15:36.820Z,28.48
2022-10-25T04:18:30.887Z,28.52
2022-10-25T04:21:19.857Z,25.42
2022-10-25T04:24:03.432Z,26.90
2022-10-25T04:26:57.863Z,27.13
2022-10-25T04:29:51.860Z,27.25
2022-10-25T04:32:38.881Z,25.70
2022-10-25T04:35:12.791Z,27.02
2022-10-25T04:38:03.861Z,28.00
2022-10-25T04:40:36.925Z,27.63
2022-10-25T04:43:32.832Z,25.85
2022-10-25T04:46:20.887Z,27.00
2022-10-25T04:48:53.993Z,25.77
2022-10-25T04:51:40.910Z,24.15
2022-10-25T04:54:14.927Z,27.38
2022-10-25T04:57:03.870Z,25.08
2022-10-25T04:59:40.040Z,24.30
2022-10-25T05:02:26.938Z,23.75
2022-10-25T05:04:59.990Z,23.55
2022-10-25T05:07:46.880Z,24.02
2022-10-25T05:10:20.056Z,26.15
2022-10-25T05:13:06.881Z,22.48
2022-10-25T05:15:39.957Z,23.17
2022-10-25T05:18:26.890Z,22.27
2022-10-25T05:21:07.954Z,23.95
2022-10-25T05:23:58.962Z,22.35
2022-10-25T05:26:41.860Z,22.98
2022-10-25T05:29:35.868Z,21.17
2022-10-25T05:32:22.883Z,21.77
2022-10-25T05:35:02.876Z,24.83
2022-10-25T05:37:49.879Z,23.55
2022-10-25T05:40:29.861Z,24.92
2022-10-25T05:43:16.943Z,23.77
2022-10-25T05:45:49.999Z,27.80
2022-10-25T05:48:36.885Z,21.02
2022-10-25T05:51:37.876Z,25.75
2022-10-25T05:54:31.861Z,22.20
2022-10-25T05:57:18.935Z,22.83
2022-10-25T05:59:51.956Z,25.00
2022-10-25T06:02:38.925Z,20.75
2022-10-25T06:05:21.588Z,24.38
2022-10-25T06:08:14.883Z,36.92
2022-10-25T06:11:08.930Z,40.20
2022-10-25T06:13:55.870Z,31.23
2022-10-25T06:16:35.894Z,31.88
2022-10-25T06:19:29.881Z,38.15
2022-10-25T06:22:23.959Z,28.42
2022-10-25T06:25:19.894Z,41.05
2022-10-25T06:28:06.932Z,27.73
2022-10-25T06:30:42.311Z,49.40
2022-10-25T06:33:28.924Z,25.77
2022-10-25T06:36:07.540Z,42.47
2022-10-25T06:38:54.932Z,28.38
2022-10-25T06:41:40.933Z,37.05
2022-10-25T06:44:34.931Z,31.15
2022-10-25T06:47:21.891Z,27.48
2022-10-25T06:50:03.087Z,25.17
2022-10-25T06:52:56.930Z,30.83
2022-10-25T06:55:52.938Z,28.98
2022-10-25T06:58:40.938Z,25.55
2022-10-25T07:01:22.219Z,80.65
2022-10-25T07:04:09.959Z,51.67
2022-10-25T07:06:52.786Z,26.50
2022-10-25T07:09:48.942Z,36.03
2022-10-25T07:12:44.940Z,27.48
2022-10-25T07:15:31.957Z,25.05
2022-10-25T07:18:05.008Z,25.98
2022-10-25T07:21:00.038Z,26.23
2022-10-25T07:23:42.002Z,25.63
2022-10-25T07:26:36.960Z,25.77
2022-10-25T07:29:11.018Z,27.85
2022-10-25T07:31:57.963Z,27.05
2022-10-25T07:34:32.102Z,25.85
2022-10-25T07:37:18.937Z,23.65
2022-10-25T07:39:52.055Z,25.95
2022-10-25T07:42:45.963Z,23.30
2022-10-25T07:45:32.937Z,23.65
2022-10-25T07:48:08.067Z,24.95
2022-10-25T07:50:54.977Z,22.13
2022-10-25T07:53:35.956Z,23.17
2022-10-25T07:56:32.981Z,23.80
2022-10-25T07:59:29.955Z,24.35
2022-10-25T08:02:28.007Z,22.85
2022-10-25T08:05:21.997Z,24.25
2022-10-25T08:08:10.184Z,24.10
2022-10-25T08:10:43.060Z,24.10
2022-10-25T08:13:31.992Z,25.70
2022-10-25T08:16:14.017Z,27.45
2022-10-25T08:19:03.543Z,23.00
2022-10-25T08:21:38.050Z,23.60
2022-10-25T08:24:24.984Z,26.13
2022-10-25T08:27:06.008Z,24.63
2022-10-25T08:29:54.005Z,21.80
2022-10-25T08:32:35.002Z,22.20
2022-10-25T08:35:23.966Z,25.38
2022-10-25T08:38:05.964Z,25.73
2022-10-25T08:41:08.007Z,23.33
2022-10-25T08:44:21.971Z,23.63
2022-10-25T08:47:22.997Z,22.98
2022-10-25T08:50:26.999Z,24.73
2022-10-25T08:53:32.999Z,22.23
2022-10-25T08:56:25.717Z,20.73
2022-10-25T08:59:09.075Z,23.02
2022-10-25T09:02:04.121Z,26.00
2022-10-25T09:04:40.049Z,23.38
2022-10-25T09:07:49.439Z,23.27
2022-10-25T09:11:14.013Z,22.00
2022-10-25T09:14:18.989Z,22.73
2022-10-25T09:17:01.100Z,22.52
2022-10-25T09:20:04.028Z,19.05
2022-10-25T09:22:52.051Z,19.08
2022-10-25T09:25:47.999Z,19.38
2022-10-25T09:28:34.984Z,18.25
2022-10-25T09:31:33.002Z,20.38
2022-10-25T09:34:24.011Z,19.52
2022-10-25T09:37:05.083Z,18.98
2022-10-25T09:39:57.999Z,17.70
2022-10-25T09:42:41.061Z,16.85
2022-10-25T09:45:54.010Z,18.92
2022-10-25T09:48:46.570Z,18.95
2022-10-25T09:51:42.040Z,17.48
2022-10-25T09:54:27.901Z,16.60
2022-10-25T09:57:15.021Z,18.00
2022-10-25T09:59:50.090Z,15.88
2022-10-25T10:02:37.171Z,17.73
2022-10-25T10:05:10.077Z,19.30
2022-10-25T10:07:58.016Z,17.77
2022-10-25T10:10:44.334Z,16.52
2022-10-25T10:13:49.008Z,16.95
2022-10-25T10:16:39.365Z,18.23
2022-10-25T10:19:30.338Z,18.52
2022-10-25T10:22:14.219Z,19.63
2022-10-25T10:25:07.006Z,17.70
2022-10-25T10:27:41.074Z,17.88
2022-10-25T10:30:35.040Z,18.85
2022-10-25T10:33:09.635Z,17.50
2022-10-25T10:36:00.048Z,19.33
2022-10-25T10:38:36.103Z,17.67
2022-10-25T10:41:38.333Z,19.30
2022-10-25T10:44:37.013Z,18.92
2022-10-25T10:47:28.051Z,17.98
2022-10-25T10:50:01.091Z,17.23
2022-10-25T10:52:54.029Z,19.50
2022-10-25T10:55:45.023Z,18.30
2022-10-25T10:58:43.033Z,16.77
2022-10-25T11:01:40.201Z,18.80
2022-10-25T11:04:21.858Z,19.48
2022-10-25T11:07:44.797Z,17.80
2022-10-25T11:10:24.161Z,17.27
2022-10-25T11:13:25.011Z,20.40
2022-10-25T11:16:16.198Z,19.42
2022-10-25T11:19:26.052Z,17.48
2022-10-25T11:22:32.865Z,21.10
2022-10-25T11:25:27.045Z,21.65
2022-10-25T11:28:26.047Z,18.58
2022-10-25T11:31:24.064Z,19.85
2022-10-25T11:34:51.060Z,21.25
2022-10-25T11:37:53.041Z,17.98
2022-10-25T11:40:39.135Z,20.38
2022-10-25T11:43:42.053Z,19.60
2022-10-25T11:46:57.036Z,22.30
2022-10-25T11:49:39.138Z,22.27
2022-10-25T11:52:50.138Z,20.63
2022-10-25T11:55:34.175Z,17.90
2022-10-25T11:58:36.072Z,18.60
2022-10-25T12:01:16.167Z,21.80
2022-10-25T12:04:30.695Z,19.02
2022-10-25T12:07:15.062Z,19.88
2022-10-25T12:10:30.073Z,30.20
2022-10-25T12:13:44.108Z,18.65
2022-10-25T12:16:39.075Z,20.60
2022-10-25T12:19:31.048Z,18.77
2022-10-25T12:22:13.150Z,19.50
2022-10-25T12:25:07.050Z,21.65
2022-10-25T12:27:43.139Z,20.33
2022-10-25T12:33:27.071Z,21.75
2022-10-25T12:36:08.179Z,18.40
2022-10-25T12:38:55.070Z,16.98
2022-10-25T12:41:31.141Z,17.17
2022-10-25T12:44:45.065Z,17.77
2022-10-25T12:48:01.084Z,20.05
2022-10-25T12:51:23.079Z,21.33
2022-10-25T12:54:31.094Z,18.65
2022-10-25T12:57:14.208Z,19.20
2022-10-25T13:03:17.013Z,19.85
2022-10-25T13:06:08.118Z,19.38
2022-10-25T13:08:49.103Z,20.15
2022-10-25T13:11:22.156Z,18.35
2022-10-25T13:14:10.096Z,19.10
2022-10-25T13:16:43.198Z,19.95
2022-10-25T13:22:46.816Z,17.08
2022-10-25T13:25:39.125Z,17.67
2022-10-25T13:28:21.180Z,21.33
2022-10-25T13:31:42.130Z,19.35
2022-10-25T13:34:21.162Z,18.65
2022-10-25T13:37:10.141Z,18.75
2022-10-25T13:39:52.181Z,18.67
2022-10-25T13:42:44.318Z,17.60
2022-10-25T13:45:31.343Z,19.60
2022-10-25T13:48:20.163Z,18.90
2022-10-25T13:51:01.246Z,20.15
2022-10-25T13:53:52.112Z,17.70
2022-10-25T13:56:28.175Z,18.13
2022-10-25T13:59:42.121Z,19.17
2022-10-25T14:02:34.121Z,18.38
2022-10-25T14:05:28.121Z,19.17
2022-10-25T14:08:35.118Z,18.55
2022-10-25T14:11:30.123Z,18.48
2022-10-25T14:14:18.199Z,20.23
2022-10-25T14:17:30.140Z,17.63
2022-10-25T14:20:07.242Z,19.00
2022-10-25T14:23:00.120Z,19.85
2022-10-25T14:25:55.246Z,19.42
2022-10-25T14:28:42.120Z,20.95
2022-10-25T14:31:20.327Z,17.80
2022-10-25T14:34:07.154Z,18.75
2022-10-25T14:36:48.159Z,19.88
2022-10-25T14:39:43.139Z,20.95
2022-10-25T14:42:30.121Z,19.40
2022-10-25T14:45:03.216Z,20.73
2022-10-25T14:47:50.143Z,19.83
2022-10-25T14:50:32.222Z,19.35
2022-10-25T14:53:22.147Z,21.35
2022-10-25T14:56:06.263Z,20.92
2022-10-25T14:58:53.163Z,20.15
2022-10-25T15:01:35.263Z,22.70
2022-10-25T15:04:22.165Z,19.70
2022-10-25T15:07:02.142Z,19.33
2022-10-25T15:10:07.164Z,20.85
2022-10-25T15:13:01.159Z,23.75
2022-10-25T15:15:44.166Z,20.13
2022-10-25T15:18:34.166Z,21.40
2022-10-25T15:21:29.158Z,21.58
2022-10-25T15:24:27.156Z,21.65
2022-10-25T15:27:48.145Z,23.20
2022-10-25T15:30:57.163Z,20.67
2022-10-25T15:33:52.144Z,20.67
2022-10-25T15:36:40.160Z,24.00
2022-10-25T15:39:33.038Z,21.05
2022-10-25T15:42:20.187Z,22.77
2022-10-25T15:44:53.251Z,19.98
2022-10-25T15:47:42.149Z,20.35
2022-10-25T15:50:25.917Z,23.88
2022-10-25T15:53:12.180Z,21.70
2022-10-25T15:55:52.218Z,21.58
2022-10-25T15:58:46.181Z,22.38
2022-10-25T16:01:33.339Z,23.30
2022-10-25T16:04:06.258Z,24.52
2022-10-25T16:06:53.179Z,22.48
2022-10-25T16:09:26.256Z,22.17
2022-10-25T16:12:15.177Z,20.92
2022-10-25T16:14:48.264Z,23.13
2022-10-25T16:17:42.176Z,24.63
2022-10-25T16:20:45.201Z,26.17
2022-10-25T16:23:39.195Z,25.25
2022-10-25T16:26:42.187Z,28.05
2022-10-25T16:29:22.363Z,27.73
2022-10-25T16:32:10.189Z,27.77
2022-10-25T16:34:48.322Z,29.23
2022-10-25T16:37:28.202Z,27.48
2022-10-25T16:40:08.216Z,28.98
2022-10-25T16:42:52.207Z,28.88
2022-10-25T16:45:50.187Z,28.10
2022-10-25T16:48:45.204Z,28.23
2022-10-25T16:51:32.206Z,27.05
2022-10-25T16:54:05.286Z,26.67
2022-10-25T16:56:52.210Z,27.35
2022-10-25T16:59:25.275Z,29.08
2022-10-25T17:02:13.290Z,30.33
2022-10-25T17:04:46.336Z,29.83
2022-10-25T17:07:33.260Z,29.60
2022-10-25T17:10:06.291Z,28.70
2022-10-25T17:12:55.220Z,27.70
2022-10-25T17:15:35.202Z,31.77
2022-10-25T17:18:29.201Z,30.27
2022-10-25T17:21:19.209Z,31.60
2022-10-25T17:23:52.290Z,50.00
2022-10-25T17:26:39.234Z,63.92
2022-10-25T17:29:12.306Z,66.95
2022-10-25T17:31:59.219Z,52.58
2022-10-25T17:34:39.228Z,31.30
2022-10-25T17:37:33.221Z,31.90
2022-10-25T17:40:20.221Z,32.65
2022-10-25T17:42:53.527Z,35.13
2022-10-25T17:45:40.252Z,30.50
2022-10-25T17:48:13.341Z,32.00
2022-10-25T17:51:00.216Z,28.85
2022-10-25T17:53:33.342Z,32.10
2022-10-25T17:56:24.344Z,29.30
2022-10-25T17:59:08.259Z,32.63
2022-10-25T18:02:02.319Z,36.88
2022-10-25T18:05:19.078Z,31.77
2022-10-25T18:07:56.251Z,33.67
2022-10-25T18:10:43.227Z,34.40
2022-10-25T18:13:37.264Z,38.13
2022-10-25T18:16:33.247Z,38.88
2022-10-25T18:19:28.248Z,32.85
2022-10-25T18:22:22.230Z,38.08
2022-10-25T18:25:09.268Z,34.85
2022-10-25T18:27:49.639Z,36.03
2022-10-25T18:30:43.268Z,41.55
2022-10-25T18:33:31.266Z,46.13
2022-10-25T18:36:07.307Z,35.58
2022-10-25T18:39:01.259Z,36.53
2022-10-25T18:41:37.570Z,35.00
2022-10-25T18:44:24.284Z,38.45
2022-10-25T18:46:57.324Z,52.78
2022-10-25T18:49:44.242Z,45.15
2022-10-25T18:52:17.402Z,44.08
2022-10-25T18:55:04.253Z,47.70
2022-10-25T18:57:37.349Z,48.40
2022-10-25T19:00:24.265Z,36.70
2022-10-25T19:02:57.406Z,33.92
2022-10-25T19:05:46.265Z,31.00
2022-10-25T19:08:19.337Z,27.95
2022-10-25T19:11:13.276Z,31.23
2022-10-25T19:13:50.422Z,30.38
2022-10-25T19:16:38.295Z,31.05
2022-10-25T19:19:14.587Z,32.13
2022-10-25T19:22:01.265Z,34.90
2022-10-25T19:24:42.273Z,36.53
2022-10-25T19:27:29.278Z,35.53
2022-10-25T19:30:09.293Z,35.70
2022-10-25T19:33:03.286Z,40.65
2022-10-25T19:35:50.293Z,33.78
2022-10-25T19:38:23.356Z,32.03
2022-10-25T19:41:12.277Z,34.20
2022-10-25T19:43:45.398Z,31.75
2022-10-25T19:46:32.286Z,31.98
2022-10-25T19:49:05.371Z,40.13
2022-10-25T19:51:52.288Z,36.47
2022-10-25T19:54:32.268Z,35.50
2022-10-25T19:57:19.308Z,37.85
2022-10-25T19:59:59.286Z,36.13
2022-10-25T20:02:53.295Z,36.10
2022-10-25T20:05:40.298Z,34.05
2022-10-25T20:08:13.353Z,33.50
2022-10-25T20:11:00.450Z,32.03
2022-10-25T20:13:33.356Z,45.22
2022-10-25T20:16:21.304Z,51.42
2022-10-25T20:18:54.374Z,52.42
2022-10-25T20:21:43.330Z,51.10
2022-10-25T20:24:16.401Z,47.10
2022-10-25T20:27:03.288Z,52.92
2022-10-25T20:29:36.371Z,59.30
2022-10-25T20:32:23.301Z,96.63
2022-10-25T20:34:56.487Z,146.80
2022-10-25T20:37:43.305Z,252.93
2022-10-25T20:40:16.369Z,109.20
2022-10-25T20:43:04.306Z,96.45
2022-10-25T20:45:37.458Z,71.35
2022-10-25T20:48:24.311Z,72.63
2022-10-25T20:51:06.966Z,47.45
2022-10-25T20:53:55.300Z,102.63
2022-10-25T20:56:29.393Z,80.55
2022-10-25T20:59:16.308Z,85.40
2022-10-25T21:01:49.502Z,72.30
2022-10-25T21:04:42.607Z,44.28
2022-10-25T21:07:26.711Z,40.72
2022-10-25T21:10:13.312Z,38.97
2022-10-25T21:12:46.376Z,32.33
2022-10-25T21:15:33.326Z,29.50
2022-10-25T21:18:06.408Z,29.75
2022-10-25T21:20:55.337Z,27.70
2022-10-25T21:23:35.334Z,30.90
2022-10-25T21:26:29.327Z,30.17
2022-10-25T21:29:16.339Z,29.50
2022-10-25T21:31:56.323Z,29.17
2022-10-25T21:34:43.338Z,28.27
2022-10-25T21:37:16.528Z,33.40
2022-10-25T21:40:03.334Z,29.67
2022-10-25T21:42:49.346Z,31.95
2022-10-25T21:45:36.333Z,39.90
2022-10-25T21:48:09.422Z,47.63
2022-10-25T21:51:01.347Z,44.50
2022-10-25T21:53:41.414Z,26.17
2022-10-25T21:56:36.331Z,49.08
2022-10-25T21:59:23.364Z,41.42
2022-10-25T22:02:03.547Z,39.75
2022-10-25T22:04:57.342Z,25.55
2022-10-25T22:07:44.355Z,27.15
2022-10-25T22:10:17.413Z,26.67
2022-10-25T22:13:04.366Z,31.30
2022-10-25T22:15:37.426Z,27.30
2022-10-25T22:18:24.357Z,37.30
2022-10-25T22:21:05.450Z,28.83
2022-10-25T22:23:52.350Z,29.33
2022-10-25T22:26:27.498Z,31.98
2022-10-25T22:29:17.363Z,48.88
2022-10-25T22:31:50.445Z,52.40
2022-10-25T22:34:37.370Z,32.50
2022-10-25T22:37:17.361Z,30.02
2022-10-25T22:40:04.376Z,30.05
2022-10-25T22:42:44.375Z,25.70
2022-10-25T22:45:38.391Z,27.52
2022-10-25T22:48:25.375Z,27.77
2022-10-25T22:51:00.439Z,24.05
2022-10-25T22:53:48.378Z,23.85
2022-10-25T22:56:29.501Z,26.55
2022-10-25T22:59:18.368Z,25.75
2022-10-25T23:01:51.441Z,23.83
2022-10-25T23:04:38.390Z,24.30
2022-10-25T23:07:11.446Z,24.85
2022-10-25T23:09:58.354Z,26.05
2022-10-25T23:12:38.387Z,24.63
2022-10-25T23:15:32.383Z,25.35
2022-10-25T23:18:19.390Z,23.75
2022-10-25T23:20:56.533Z,24.00
2022-10-25T23:23:46.399Z,24.27
2022-10-25T23:26:32.476Z,24.90
2022-10-25T23:29:19.382Z,24.00
2022-10-25T23:31:52.482Z,24.98
2022-10-25T23:34:39.390Z,24.60
2022-10-25T23:37:12.597Z,25.35
2022-10-25T23:39:59.394Z,25.08
2022-10-25T23:42:32.532Z,24.83
2022-10-25T23:45:26.393Z,25.23
2022-10-25T23:48:13.389Z,24.50
2022-10-25T23:50:53.464Z,24.30
2022-10-25T23:53:48.398Z,23.77
2022-10-25T23:56:35.419Z,23.20
2022-10-25T23:59:15.453Z,25.02
